createdAt,value
2023-04-07T00:01:10.484Z,45.53
2023-04-07T00:03:41.496Z,44.50
2023-04-07T00:06:12.084Z,45.02
2023-04-07T00:08:42.344Z,44.62
2023-04-07T00:11:15.600Z,45.00
2023-04-07T00:13:45.661Z,45.40
2023-04-07T00:16:16.295Z,45.31
2023-04-07T00:18:46.324Z,45.84
2023-04-07T00:21:16.496Z,45.83
2023-04-07T00:23:47.229Z,45.81
2023-04-07T00:26:19.985Z,45.76
2023-04-07T00:28:51.050Z,48.12
2023-04-07T00:31:21.494Z,47.18
2023-04-07T00:33:51.791Z,46.54
2023-04-07T00:36:22.106Z,46.42
2023-04-07T00:38:52.223Z,45.75
2023-04-07T00:41:23.970Z,45.57
2023-04-07T00:43:54.639Z,46.55
2023-04-07T00:46:25.754Z,48.80
2023-04-07T00:48:56.439Z,48.42
2023-04-07T00:51:27.758Z,46.47
2023-04-07T00:53:58.443Z,46.08
2023-04-07T00:56:30.973Z,47.14
2023-04-07T00:59:01.245Z,47.60
2023-04-07T01:01:34.940Z,47.07
2023-04-07T01:04:11.169Z,48.72
2023-04-07T01:06:46.893Z,48.06
2023-04-07T01:09:20.257Z,47.61
2023-04-07T01:11:58.706Z,46.99
2023-04-07T01:14:33.240Z,46.88
2023-04-07T01:17:04.117Z,47.40
2023-04-07T01:19:39.046Z,46.32
2023-04-07T01:22:15.715Z,48.67
2023-04-07T01:25:18.325Z,46.68
2023-04-07T01:28:03.139Z,47.64
2023-04-07T01:30:38.777Z,47.41
2023-04-07T01:33:10.264Z,47.78
2023-04-07T01:35:41.713Z,47.27
2023-04-07T01:38:12.561Z,48.15
2023-04-07T01:40:43.900Z,46.76
2023-04-07T01:43:15.469Z,47.83
2023-04-07T01:45:48.005Z,47.71
2023-04-07T01:48:19.048Z,46.53
2023-04-07T01:50:49.910Z,47.87
2023-04-07T01:53:20.859Z,47.79
2023-04-07T01:55:51.781Z,47.74
2023-04-07T01:58:23.398Z,48.02
2023-04-07T02:00:55.329Z,48.85
2023-04-07T02:03:29.888Z,48.86
2023-04-07T02:06:05.440Z,49.32
2023-04-07T02:08:37.779Z,47.30
2023-04-07T02:11:09.539Z,47.08
2023-04-07T02:13:40.527Z,48.47
2023-04-07T02:16:13.416Z,48.42
2023-04-07T02:18:45.724Z,47.83
2023-04-07T02:21:17.906Z,48.30
2023-04-07T02:23:49.644Z,46.68
2023-04-07T02:26:19.477Z,47.75
2023-04-07T02:28:49.435Z,48.12
2023-04-07T02:31:21.272Z,46.92
2023-04-07T02:33:52.144Z,48.48
2023-04-07T02:36:22.464Z,47.04
2023-04-07T02:38:52.914Z,48.44
2023-04-07T02:41:23.114Z,48.64
2023-04-07T02:43:53.878Z,47.18
2023-04-07T02:46:26.064Z,47.02
2023-04-07T02:48:56.375Z,47.39
2023-04-07T02:51:27.405Z,48.42
2023-04-07T02:53:58.341Z,48.35
2023-04-07T02:56:28.333Z,48.91
2023-04-07T02:58:58.851Z,48.04
2023-04-07T03:01:32.342Z,48.66
2023-04-07T03:04:02.560Z,48.83
2023-04-07T03:06:33.879Z,49.70
2023-04-07T03:09:04.724Z,49.06
2023-04-07T03:11:34.677Z,48.57
2023-04-07T03:14:05.433Z,50.76
2023-04-07T03:16:37.931Z,48.21
2023-04-07T03:19:08.154Z,49.97
2023-04-07T03:21:39.585Z,50.03
2023-04-07T03:24:10.742Z,48.64
2023-04-07T03:26:40.670Z,49.29
2023-04-07T03:29:10.618Z,49.00
2023-04-07T03:31:43.405Z,50.14
2023-04-07T03:34:13.416Z,48.81
2023-04-07T03:36:43.508Z,50.55
2023-04-07T03:39:15.134Z,50.15
2023-04-07T03:41:46.433Z,49.91
2023-04-07T03:44:16.614Z,51.24
2023-04-07T03:46:51.743Z,51.13
2023-04-07T03:49:21.522Z,51.04
2023-04-07T03:51:52.204Z,50.24
2023-04-07T03:54:23.228Z,50.11
2023-04-07T03:56:53.664Z,50.43
2023-04-07T03:59:24.393Z,49.45
2023-04-07T04:01:56.677Z,51.83
2023-04-07T04:04:27.109Z,51.45
2023-04-07T04:06:57.367Z,50.60
2023-04-07T04:09:27.870Z,49.31
2023-04-07T04:11:58.328Z,50.65
2023-04-07T04:14:28.970Z,50.57
2023-04-07T04:17:01.292Z,49.41
2023-04-07T04:19:36.373Z,48.88
2023-04-07T04:22:06.553Z,49.32
2023-04-07T04:24:37.565Z,51.48
2023-04-07T04:27:07.574Z,52.36
2023-04-07T04:29:37.885Z,53.07
2023-04-07T04:32:09.903Z,49.85
2023-04-07T04:34:42.401Z,49.81
2023-04-07T04:37:13.039Z,47.87
2023-04-07T04:39:42.900Z,48.01
2023-04-07T04:42:13.298Z,48.85
2023-04-07T04:44:44.911Z,49.86
2023-04-07T04:47:16.630Z,50.57
2023-04-07T04:49:47.324Z,50.23
2023-04-07T04:52:18.101Z,49.03
2023-04-07T04:54:48.837Z,48.74
2023-04-07T04:57:19.236Z,49.00
2023-04-07T04:59:49.493Z,48.21
2023-04-07T05:02:22.355Z,47.91
2023-04-07T05:04:53.543Z,48.77
2023-04-07T05:07:23.449Z,48.88
2023-04-07T05:09:53.515Z,49.69
2023-04-07T05:12:23.625Z,49.99
2023-04-07T05:14:53.988Z,48.94
2023-04-07T05:17:26.648Z,48.94
2023-04-07T05:19:57.063Z,49.38
2023-04-07T05:22:26.918Z,48.78
2023-04-07T05:24:57.448Z,47.94
2023-04-07T05:27:28.074Z,48.44
2023-04-07T05:29:57.700Z,47.97
2023-04-07T05:32:32.674Z,47.89
2023-04-07T05:35:03.370Z,47.37
2023-04-07T05:37:34.244Z,47.71
2023-04-07T05:40:05.143Z,47.75
2023-04-07T05:42:35.365Z,48.39
2023-04-07T05:45:05.693Z,49.33
2023-04-07T05:47:37.575Z,49.15
2023-04-07T05:50:08.985Z,49.07
2023-04-07T05:52:40.350Z,48.51
2023-04-07T05:55:11.247Z,48.26
2023-04-07T05:57:42.085Z,48.06
2023-04-07T06:00:14.019Z,47.50
2023-04-07T06:02:46.453Z,48.21
2023-04-07T06:05:17.563Z,48.81
2023-04-07T06:07:47.504Z,47.16
2023-04-07T06:10:18.004Z,47.53
2023-04-07T06:12:48.321Z,49.17
2023-04-07T06:15:18.457Z,47.74
2023-04-07T06:17:50.228Z,47.68
2023-04-07T06:20:21.965Z,49.11
2023-04-07T06:22:52.241Z,48.80
2023-04-07T06:25:22.419Z,48.11
2023-04-07T06:27:53.069Z,48.11
2023-04-07T06:30:24.152Z,49.43
2023-04-07T06:32:56.559Z,49.32
2023-04-07T06:35:28.459Z,48.50
2023-04-07T06:37:58.930Z,48.42
2023-04-07T06:40:30.489Z,49.10
2023-04-07T06:43:00.311Z,47.95
2023-04-07T06:45:30.635Z,48.98
2023-04-07T06:48:02.494Z,49.12
2023-04-07T06:50:34.035Z,48.25
2023-04-07T06:53:03.524Z,48.77
2023-04-07T06:55:33.851Z,48.32
2023-04-07T06:58:04.141Z,48.20
2023-04-07T07:00:34.114Z,47.85
2023-04-07T07:03:06.442Z,47.42
2023-04-07T07:05:37.635Z,48.69
2023-04-07T07:08:08.154Z,48.74
2023-04-07T07:10:38.799Z,46.25
2023-04-07T07:13:08.854Z,47.72
2023-04-07T07:15:39.137Z,46.80
2023-04-07T07:18:11.426Z,46.12
2023-04-07T07:20:41.689Z,46.44
2023-04-07T07:23:11.916Z,45.73
2023-04-07T07:25:42.801Z,46.63
2023-04-07T07:28:12.772Z,45.26
2023-04-07T07:30:44.067Z,45.45
2023-04-07T07:33:15.763Z,45.41
2023-04-07T07:35:45.859Z,45.48
2023-04-07T07:38:15.853Z,43.73
2023-04-07T07:40:48.088Z,44.58
2023-04-07T07:43:19.346Z,44.84
2023-04-07T07:45:50.302Z,44.03
2023-04-07T07:48:21.535Z,43.64
2023-04-07T07:50:52.578Z,44.19
2023-04-07T07:53:23.048Z,43.71
2023-04-07T07:55:53.620Z,43.71
2023-04-07T07:58:23.747Z,44.26
2023-04-07T08:00:54.340Z,42.43
2023-04-07T08:03:26.595Z,41.96
2023-04-07T08:05:57.166Z,38.71
2023-04-07T08:08:28.501Z,38.28
2023-04-07T08:10:58.465Z,37.57
2023-04-07T08:13:29.140Z,36.83
2023-04-07T08:16:00.218Z,35.57
2023-04-07T08:18:32.693Z,34.11
2023-04-07T08:21:07.075Z,34.91
2023-04-07T08:23:37.186Z,32.66
2023-04-07T08:26:07.335Z,34.26
2023-04-07T08:28:37.957Z,33.23
2023-04-07T08:31:09.304Z,33.46
2023-04-07T08:33:41.306Z,33.42
2023-04-07T08:36:14.012Z,32.02
2023-04-07T08:38:45.486Z,32.95
2023-04-07T08:41:23.625Z,31.84
2023-04-07T08:43:55.547Z,32.79
2023-04-07T08:46:26.169Z,32.82
2023-04-07T08:48:59.394Z,33.65
2023-04-07T08:51:33.176Z,32.48
2023-04-07T08:54:09.059Z,33.13
2023-04-07T08:56:42.541Z,31.60
2023-04-07T08:59:15.034Z,31.08
2023-04-07T09:01:49.014Z,31.22
2023-04-07T09:04:23.236Z,29.95
2023-04-07T09:06:54.143Z,31.65
2023-04-07T09:09:25.242Z,31.57
2023-04-07T09:11:55.901Z,29.23
2023-04-07T09:14:26.639Z,29.72
2023-04-07T09:16:57.756Z,29.89
2023-04-07T09:19:31.366Z,29.94
2023-04-07T09:22:03.735Z,28.60
2023-04-07T09:24:35.226Z,28.82
2023-04-07T09:27:17.077Z,29.03
2023-04-07T09:29:52.141Z,29.27
2023-04-07T09:32:39.328Z,29.04
2023-04-07T09:35:12.868Z,28.58
2023-04-07T09:37:45.645Z,29.01
2023-04-07T09:40:29.538Z,27.83
2023-04-07T09:43:00.659Z,28.05
2023-04-07T09:45:35.740Z,29.16
2023-04-07T09:48:11.336Z,28.58
2023-04-07T09:50:46.409Z,27.86
2023-04-07T09:53:18.452Z,28.93
2023-04-07T09:55:50.364Z,30.25
2023-04-07T09:58:22.595Z,28.50
2023-04-07T10:00:54.855Z,29.39
2023-04-07T10:03:27.439Z,28.81
2023-04-07T10:06:00.164Z,28.62
2023-04-07T10:08:32.571Z,28.49
2023-04-07T10:11:04.695Z,28.04
2023-04-07T10:13:38.007Z,26.35
2023-04-07T10:16:11.096Z,30.40
2023-04-07T10:18:42.681Z,27.83
2023-04-07T10:21:15.865Z,25.98
2023-04-07T10:23:55.760Z,26.79
2023-04-07T10:26:31.135Z,26.52
2023-04-07T10:29:06.987Z,26.16
2023-04-07T10:31:38.377Z,26.71
2023-04-07T10:34:08.923Z,26.76
2023-04-07T10:37:11.228Z,28.52
2023-04-07T10:39:43.163Z,26.82
2023-04-07T10:42:44.429Z,26.80
2023-04-07T10:45:16.037Z,26.81
2023-04-07T10:48:13.743Z,26.32
2023-04-07T10:50:44.717Z,25.92
2023-04-07T10:53:18.058Z,25.97
2023-04-07T10:55:50.448Z,25.64
2023-04-07T10:58:23.181Z,26.90
2023-04-07T11:01:20.221Z,26.82
2023-04-07T11:04:00.547Z,24.77
2023-04-07T11:06:33.664Z,24.71
2023-04-07T11:09:06.622Z,25.20
2023-04-07T11:12:05.093Z,28.23
2023-04-07T11:14:38.383Z,25.19
2023-04-07T11:17:10.997Z,24.19
2023-04-07T11:19:54.795Z,24.35
2023-04-07T11:22:30.252Z,24.35
2023-04-07T11:25:02.734Z,25.27
2023-04-07T11:27:34.220Z,27.69
2023-04-07T11:30:07.329Z,27.40
2023-04-07T11:32:39.286Z,26.10
2023-04-07T11:35:11.578Z,24.92
2023-04-07T11:37:43.231Z,28.02
2023-04-07T11:40:17.309Z,26.44
2023-04-07T11:42:47.711Z,26.15
2023-04-07T11:45:23.023Z,26.81
2023-04-07T11:47:53.740Z,24.28
2023-04-07T11:50:43.644Z,25.34
2023-04-07T11:53:14.941Z,24.85
2023-04-07T11:55:48.114Z,26.60
2023-04-07T11:58:18.226Z,24.03
2023-04-07T12:00:58.417Z,23.86
2023-04-07T12:03:29.300Z,26.64
2023-04-07T12:06:00.198Z,23.38
2023-04-07T12:08:43.845Z,23.63
2023-04-07T12:11:15.820Z,22.55
2023-04-07T12:13:45.521Z,22.01
2023-04-07T12:16:15.482Z,21.37
2023-04-07T12:18:47.630Z,24.17
2023-04-07T12:21:18.170Z,23.89
2023-04-07T12:23:50.336Z,22.80
2023-04-07T12:26:27.340Z,23.08
2023-04-07T12:28:59.696Z,23.89
2023-04-07T12:31:31.657Z,20.66
2023-04-07T12:34:03.500Z,22.56
2023-04-07T12:36:41.211Z,20.76
2023-04-07T12:39:12.456Z,20.06
2023-04-07T12:41:45.868Z,22.00
2023-04-07T12:44:18.028Z,21.44
2023-04-07T12:46:48.364Z,21.42
2023-04-07T12:49:19.638Z,21.37
2023-04-07T12:51:51.171Z,22.33
2023-04-07T12:54:21.643Z,24.62
2023-04-07T12:56:53.147Z,22.65
2023-04-07T12:59:26.990Z,22.91
2023-04-07T13:01:57.756Z,24.28
2023-04-07T13:04:31.278Z,22.39
2023-04-07T13:07:03.546Z,22.42
2023-04-07T13:09:34.476Z,21.46
2023-04-07T13:12:08.121Z,23.02
2023-04-07T13:14:49.294Z,21.93
2023-04-07T13:17:29.260Z,22.34
2023-04-07T13:19:59.671Z,22.91
2023-04-07T13:22:30.864Z,22.76
2023-04-07T13:25:02.045Z,24.63
2023-04-07T13:27:34.761Z,24.06
2023-04-07T13:30:04.980Z,25.38
2023-04-07T13:32:35.444Z,23.37
2023-04-07T13:35:06.135Z,24.43
2023-04-07T13:37:37.937Z,25.02
2023-04-07T13:40:10.777Z,25.11
2023-04-07T13:42:43.484Z,22.77
2023-04-07T13:45:14.791Z,24.82
2023-04-07T13:47:47.496Z,24.59
2023-04-07T13:50:17.655Z,26.74
2023-04-07T13:52:48.516Z,24.04
2023-04-07T13:55:21.015Z,24.10
2023-04-07T13:57:53.947Z,24.53
2023-04-07T14:00:25.211Z,24.74
2023-04-07T14:02:56.539Z,25.38
2023-04-07T14:05:27.144Z,23.79
2023-04-07T14:08:00.078Z,27.30
2023-04-07T14:10:30.699Z,25.57
2023-04-07T14:13:02.468Z,24.98
2023-04-07T14:15:32.738Z,25.32
2023-04-07T14:18:02.994Z,24.34
2023-04-07T14:20:34.013Z,25.18
2023-04-07T14:23:05.913Z,23.40
2023-04-07T14:25:35.679Z,26.66
2023-04-07T14:28:08.487Z,23.51
2023-04-07T14:30:39.551Z,24.60
2023-04-07T14:33:10.723Z,25.27
2023-04-07T14:35:42.015Z,25.38
2023-04-07T14:38:12.655Z,24.40
2023-04-07T14:40:43.163Z,24.43
2023-04-07T14:43:17.571Z,24.27
2023-04-07T14:45:48.052Z,24.50
2023-04-07T14:48:18.791Z,23.13
2023-04-07T14:51:02.267Z,27.56
2023-04-07T14:53:39.649Z,24.59
2023-04-07T14:56:10.668Z,26.38
2023-04-07T14:58:43.283Z,25.17
2023-04-07T15:01:13.478Z,26.17
2023-04-07T15:03:44.326Z,26.21
2023-04-07T15:06:18.242Z,26.51
2023-04-07T15:08:48.986Z,26.64
2023-04-07T15:11:20.203Z,26.37
2023-04-07T15:13:51.895Z,28.65
2023-04-07T15:16:24.875Z,28.70
2023-04-07T15:18:59.233Z,28.98
2023-04-07T15:21:32.001Z,28.05
2023-04-07T15:24:02.458Z,27.71
2023-04-07T15:26:32.871Z,27.96
2023-04-07T15:29:06.094Z,26.92
2023-04-07T15:31:36.698Z,27.46
2023-04-07T15:34:07.286Z,29.31
2023-04-07T15:36:38.047Z,28.24
2023-04-07T15:39:09.115Z,27.97
2023-04-07T15:41:39.284Z,29.28
2023-04-07T15:44:12.038Z,29.64
2023-04-07T15:46:42.481Z,29.37
2023-04-07T15:49:13.883Z,30.79
2023-04-07T15:51:44.415Z,30.89
2023-04-07T15:54:15.472Z,30.87
2023-04-07T15:56:46.203Z,30.82
2023-04-07T15:59:18.572Z,30.22
2023-04-07T16:01:48.576Z,30.89
2023-04-07T16:04:19.917Z,31.46
2023-04-07T16:06:50.721Z,32.44
2023-04-07T16:09:21.885Z,31.30
2023-04-07T16:11:52.748Z,32.00
2023-04-07T16:14:29.521Z,32.59
2023-04-07T16:16:59.543Z,32.55
2023-04-07T16:19:29.961Z,32.93
2023-04-07T16:22:00.097Z,32.06
2023-04-07T16:24:31.590Z,33.01
2023-04-07T16:27:04.163Z,32.80
2023-04-07T16:29:37.740Z,33.69
2023-04-07T16:32:09.212Z,33.28
2023-04-07T16:34:40.689Z,32.39
2023-04-07T16:37:11.106Z,33.13
2023-04-07T16:39:42.365Z,33.58
2023-04-07T16:42:12.601Z,34.94
2023-04-07T16:44:45.187Z,33.97
2023-04-07T16:47:15.465Z,35.02
2023-04-07T16:49:47.323Z,35.65
2023-04-07T16:52:20.536Z,35.36
2023-04-07T16:54:52.263Z,35.53
2023-04-07T16:57:23.244Z,35.78
2023-04-07T16:59:57.684Z,36.54
2023-04-07T17:02:29.880Z,35.76
2023-04-07T17:05:01.442Z,36.00
2023-04-07T17:07:31.639Z,35.82
2023-04-07T17:10:02.435Z,36.67
2023-04-07T17:12:32.833Z,36.55
2023-04-07T17:15:06.114Z,37.91
2023-04-07T17:17:39.541Z,37.29
2023-04-07T17:20:12.895Z,37.52
2023-04-07T17:22:45.083Z,37.34
2023-04-07T17:25:18.835Z,37.83
2023-04-07T17:27:49.896Z,38.07
2023-04-07T17:30:21.623Z,37.76
2023-04-07T17:32:53.357Z,38.07
2023-04-07T17:35:25.379Z,37.78
2023-04-07T17:37:56.764Z,38.63
2023-04-07T17:40:27.890Z,37.78
2023-04-07T17:42:58.590Z,38.06
2023-04-07T17:45:31.327Z,38.60
2023-04-07T17:48:05.718Z,38.14
2023-04-07T17:50:36.932Z,37.66
2023-04-07T17:53:08.611Z,37.99
2023-04-07T17:55:54.569Z,38.20
2023-04-07T17:58:25.495Z,39.02
2023-04-07T18:00:57.474Z,38.93
2023-04-07T18:03:27.961Z,39.07
2023-04-07T18:05:58.391Z,38.67
2023-04-07T18:08:30.771Z,39.22
2023-04-07T18:11:00.836Z,39.73
2023-04-07T18:13:32.267Z,39.48
2023-04-07T18:16:08.015Z,39.79
2023-04-07T18:18:47.117Z,39.52
2023-04-07T18:21:17.551Z,40.36
2023-04-07T18:23:48.592Z,39.72
2023-04-07T18:26:19.219Z,39.77
2023-04-07T18:28:48.865Z,40.30
2023-04-07T18:31:21.768Z,39.62
2023-04-07T18:33:51.810Z,40.20
2023-04-07T18:36:27.408Z,40.65
2023-04-07T18:38:57.814Z,41.13
2023-04-07T18:41:27.771Z,41.19
2023-04-07T18:43:58.712Z,41.09
2023-04-07T18:46:33.512Z,40.84
2023-04-07T18:49:04.863Z,41.27
2023-04-07T18:51:35.461Z,40.85
2023-04-07T18:54:06.662Z,41.42
2023-04-07T18:56:36.846Z,41.80
2023-04-07T18:59:07.910Z,41.28
2023-04-07T19:01:42.725Z,41.73
2023-04-07T19:04:13.433Z,41.01
2023-04-07T19:06:44.276Z,41.87
2023-04-07T19:09:14.821Z,41.86
2023-04-07T19:11:44.497Z,42.00
2023-04-07T19:14:14.604Z,42.29
2023-04-07T19:16:47.671Z,42.29
2023-04-07T19:19:18.038Z,43.07
2023-04-07T19:21:48.726Z,42.56
2023-04-07T19:24:19.375Z,42.01
2023-04-07T19:26:51.239Z,43.04
2023-04-07T19:29:21.689Z,43.66
2023-04-07T19:31:55.411Z,43.45
2023-04-07T19:34:28.025Z,44.37
2023-04-07T19:36:59.739Z,44.41
2023-04-07T19:39:30.809Z,44.19
2023-04-07T19:42:01.321Z,44.66
2023-04-07T19:44:34.698Z,45.08
2023-04-07T19:47:09.135Z,44.81
2023-04-07T19:49:39.495Z,44.70
2023-04-07T19:52:13.182Z,43.69
2023-04-07T19:54:43.666Z,43.69
2023-04-07T19:57:16.270Z,43.34
2023-04-07T19:59:47.127Z,44.00
2023-04-07T20:02:19.690Z,43.98
2023-04-07T20:04:50.191Z,43.94
2023-04-07T20:07:20.642Z,44.08
2023-04-07T20:09:52.189Z,44.73
2023-04-07T20:12:22.806Z,44.78
2023-04-07T20:14:53.250Z,45.49
2023-04-07T20:17:25.015Z,45.11
2023-04-07T20:19:56.868Z,44.73
2023-04-07T20:22:27.137Z,45.78
2023-04-07T20:24:57.329Z,45.83
2023-04-07T20:27:28.601Z,45.88
2023-04-07T20:29:59.295Z,46.58
2023-04-07T20:32:32.451Z,46.83
2023-04-07T20:35:03.681Z,45.80
2023-04-07T20:37:37.067Z,46.22
2023-04-07T20:40:09.596Z,46.51
2023-04-07T20:42:41.192Z,46.59
2023-04-07T20:45:15.788Z,47.51
2023-04-07T20:47:50.838Z,46.35
2023-04-07T20:50:21.340Z,45.30
2023-04-07T20:52:51.945Z,45.34
2023-04-07T20:55:22.189Z,45.34
2023-04-07T20:57:56.854Z,45.03
2023-04-07T21:00:28.812Z,44.61
2023-04-07T21:03:00.730Z,45.48
2023-04-07T21:05:31.577Z,46.10
2023-04-07T21:08:02.178Z,47.00
2023-04-07T21:10:33.467Z,46.88
2023-04-07T21:13:04.382Z,47.17
2023-04-07T21:15:35.672Z,46.83
2023-04-07T21:18:07.448Z,46.91
2023-04-07T21:20:39.275Z,47.05
2023-04-07T21:23:09.971Z,47.18
2023-04-07T21:25:40.209Z,47.25
2023-04-07T21:28:10.516Z,47.66
2023-04-07T21:30:43.308Z,47.53
2023-04-07T21:33:16.120Z,47.48
2023-04-07T21:35:49.458Z,47.76
2023-04-07T21:38:20.650Z,48.39
2023-04-07T21:40:51.182Z,48.31
2023-04-07T21:43:22.853Z,48.61
2023-04-07T21:45:55.224Z,48.84
2023-04-07T21:48:29.939Z,48.30
2023-04-07T21:51:00.209Z,49.28
2023-04-07T21:53:31.313Z,49.42
2023-04-07T21:56:01.065Z,48.45
2023-04-07T21:58:31.160Z,49.11
2023-04-07T22:01:02.756Z,49.46
2023-04-07T22:03:36.715Z,49.47
2023-04-07T22:06:07.604Z,48.53
2023-04-07T22:08:38.109Z,48.52
2023-04-07T22:11:09.094Z,49.35
2023-04-07T22:13:40.298Z,49.33
2023-04-07T22:16:10.837Z,49.27
2023-04-07T22:18:43.867Z,48.15
2023-04-07T22:21:13.899Z,48.57
2023-04-07T22:23:44.684Z,49.38
2023-04-07T22:26:14.881Z,49.03
2023-04-07T22:28:45.463Z,48.36
2023-04-07T22:31:15.772Z,49.73
2023-04-07T22:33:48.438Z,50.93
2023-04-07T22:36:18.564Z,50.43
2023-04-07T22:38:49.794Z,50.44
2023-04-07T22:41:22.013Z,51.12
2023-04-07T22:43:51.970Z,51.36
2023-04-07T22:46:23.116Z,51.09
2023-04-07T22:48:55.114Z,50.42
2023-04-07T22:51:26.216Z,50.56
2023-04-07T22:53:58.011Z,51.33
2023-04-07T22:56:31.075Z,50.06
2023-04-07T22:59:05.884Z,50.19
2023-04-07T23:01:37.429Z,50.81
2023-04-07T23:04:09.939Z,50.21
2023-04-07T23:06:43.959Z,50.69
2023-04-07T23:09:14.002Z,51.07
2023-04-07T23:11:45.315Z,50.55
2023-04-07T23:14:16.086Z,50.88
2023-04-07T23:16:46.778Z,51.77
2023-04-07T23:19:19.042Z,51.20
2023-04-07T23:21:49.980Z,50.52
2023-04-07T23:24:20.492Z,51.30
2023-04-07T23:26:51.116Z,51.42
2023-04-07T23:29:21.539Z,51.53
2023-04-07T23:31:52.992Z,51.86
2023-04-07T23:34:25.372Z,51.38
2023-04-07T23:36:56.294Z,50.99
2023-04-07T23:39:26.628Z,51.08
2023-04-07T23:41:57.853Z,50.99
2023-04-07T23:44:28.493Z,51.17
2023-04-07T23:46:58.447Z,51.42
2023-04-07T23:49:30.517Z,51.38
2023-04-07T23:52:00.915Z,51.21
2023-04-07T23:54:31.423Z,51.33
2023-04-07T23:57:01.924Z,51.09
2023-04-07T23:59:32.656Z,50.83
